createdAt,value
2023-05-12T00:00:48.552Z,3.30
2023-05-12T00:03:15.261Z,3.03
2023-05-12T00:05:41.944Z,3.38
2023-05-12T00:08:08.529Z,3.47
2023-05-12T00:10:35.568Z,3.17
2023-05-12T00:13:02.660Z,3.63
2023-05-12T00:15:29.201Z,3.13
2023-05-12T00:17:55.837Z,3.72
2023-05-12T00:20:22.578Z,3.55
2023-05-12T00:22:49.194Z,3.50
2023-05-12T00:25:15.834Z,3.28
2023-05-12T00:27:42.381Z,3.53
2023-05-12T00:30:09.957Z,3.42
2023-05-12T00:32:36.516Z,3.30
2023-05-12T00:35:03.143Z,3.75
2023-05-12T00:37:29.642Z,3.75
2023-05-12T00:39:56.265Z,3.65
2023-05-12T00:42:23.027Z,3.65
2023-05-12T00:44:50.372Z,3.42
2023-05-12T00:47:16.910Z,3.55
2023-05-12T00:49:43.661Z,3.80
2023-05-12T00:52:10.242Z,3.78
2023-05-12T00:54:39.818Z,5.03
2023-05-12T00:57:06.659Z,4.40
2023-05-12T00:59:34.024Z,3.83
2023-05-12T01:02:00.807Z,4.00
2023-05-12T01:04:29.450Z,4.22
2023-05-12T01:07:17.973Z,4.63
2023-05-12T01:09:46.181Z,4.32
2023-05-12T01:12:12.715Z,4.43
2023-05-12T01:14:40.287Z,3.92
2023-05-12T01:17:15.198Z,4.32
2023-05-12T01:19:49.125Z,4.65
2023-05-12T01:24:56.971Z,4.70
2023-05-12T01:27:27.373Z,4.18
2023-05-12T01:30:00.987Z,4.68
2023-05-12T01:32:30.401Z,4.47
2023-05-12T01:34:57.664Z,3.97
2023-05-12T01:37:28.251Z,4.32
2023-05-12T01:39:54.855Z,4.43
2023-05-12T01:42:21.622Z,4.60
2023-05-12T01:44:49.020Z,3.90
2023-05-12T01:47:16.005Z,3.88
2023-05-12T01:49:48.453Z,4.00
2023-05-12T01:52:16.174Z,4.28
2023-05-12T01:54:42.624Z,4.25
2023-05-12T01:57:10.167Z,4.07
2023-05-12T01:59:38.302Z,4.05
2023-05-12T02:02:06.375Z,3.90
2023-05-12T02:04:34.511Z,4.13
2023-05-12T02:07:01.889Z,4.15
2023-05-12T02:09:28.857Z,4.28
2023-05-12T02:12:00.650Z,4.30
2023-05-12T02:14:27.109Z,4.20
2023-05-12T02:16:55.403Z,4.50
2023-05-12T02:19:23.887Z,4.05
2023-05-12T02:21:50.408Z,4.68
2023-05-12T02:24:16.987Z,4.07
2023-05-12T02:26:44.297Z,4.57
2023-05-12T02:29:12.563Z,4.40
2023-05-12T02:31:39.209Z,4.40
2023-05-12T02:34:15.157Z,4.05
2023-05-12T02:36:41.710Z,3.92
2023-05-12T02:39:08.505Z,4.93
2023-05-12T02:41:35.547Z,4.63
2023-05-12T02:44:02.166Z,4.85
2023-05-12T02:46:28.665Z,4.80
2023-05-12T02:48:55.722Z,5.22
2023-05-12T02:51:22.274Z,4.35
2023-05-12T02:53:48.920Z,4.30
2023-05-12T02:56:17.124Z,4.45
2023-05-12T02:58:43.585Z,4.22
2023-05-12T03:01:11.536Z,4.70
2023-05-12T03:03:40.168Z,4.30
2023-05-12T03:06:07.566Z,4.38
2023-05-12T03:08:34.834Z,5.05
2023-05-12T03:11:01.915Z,4.55
2023-05-12T03:13:28.836Z,4.57
2023-05-12T03:15:55.695Z,4.85
2023-05-12T03:18:22.327Z,4.40
2023-05-12T03:20:50.132Z,5.00
2023-05-12T03:23:17.003Z,4.40
2023-05-12T03:25:43.879Z,4.82
2023-05-12T03:28:10.608Z,4.75
2023-05-12T03:30:37.117Z,5.13
2023-05-12T03:33:03.920Z,4.13
2023-05-12T03:35:31.249Z,5.35
2023-05-12T03:38:01.752Z,4.78
2023-05-12T03:40:28.724Z,4.35
2023-05-12T03:42:55.188Z,4.85
2023-05-12T03:45:21.867Z,4.82
2023-05-12T03:47:48.674Z,5.13
2023-05-12T03:50:15.555Z,5.47
2023-05-12T03:52:42.100Z,4.88
2023-05-12T03:55:09.132Z,5.18
2023-05-12T03:57:37.691Z,5.00
2023-05-12T04:00:05.756Z,6.13
2023-05-12T04:02:39.349Z,7.40
2023-05-12T04:05:08.572Z,5.57
2023-05-12T04:07:35.084Z,5.50
2023-05-12T04:10:02.013Z,5.85
2023-05-12T04:12:28.950Z,8.15
2023-05-12T04:14:55.799Z,9.23
2023-05-12T04:17:22.867Z,6.55
2023-05-12T04:19:49.420Z,7.55
2023-05-12T04:22:15.868Z,6.97
2023-05-12T04:24:42.367Z,7.18
2023-05-12T04:27:08.866Z,6.55
2023-05-12T04:29:35.535Z,5.95
2023-05-12T04:32:02.041Z,6.57
2023-05-12T04:34:28.598Z,6.05
2023-05-12T04:36:55.328Z,5.70
2023-05-12T04:39:21.809Z,6.43
2023-05-12T04:41:48.582Z,6.05
2023-05-12T04:44:15.593Z,6.18
2023-05-12T04:46:43.253Z,5.28
2023-05-12T04:49:09.992Z,6.05
2023-05-12T04:51:42.112Z,5.20
2023-05-12T04:54:11.912Z,5.97
2023-05-12T04:56:38.658Z,5.30
2023-05-12T04:59:06.573Z,5.53
2023-05-12T05:01:33.220Z,5.90
2023-05-12T05:03:59.927Z,5.80
2023-05-12T05:06:26.502Z,5.72
2023-05-12T05:08:53.180Z,5.88
2023-05-12T05:11:19.791Z,4.90
2023-05-12T05:13:46.238Z,5.50
2023-05-12T05:16:12.686Z,5.40
2023-05-12T05:18:44.123Z,5.60
2023-05-12T05:21:10.833Z,5.68
2023-05-12T05:23:37.458Z,5.38
2023-05-12T05:26:06.042Z,4.88
2023-05-12T05:28:32.510Z,4.82
2023-05-12T05:31:00.165Z,4.95
2023-05-12T05:33:27.389Z,5.45
2023-05-12T05:35:53.953Z,4.68
2023-05-12T05:38:20.934Z,4.65
2023-05-12T05:40:53.852Z,4.68
2023-05-12T05:43:22.892Z,4.80
2023-05-12T05:45:50.405Z,5.13
2023-05-12T05:48:18.370Z,5.13
2023-05-12T05:50:46.598Z,5.05
2023-05-12T05:53:13.281Z,6.00
2023-05-12T05:55:40.803Z,5.13
2023-05-12T05:58:07.639Z,6.10
2023-05-12T06:00:34.142Z,4.05
2023-05-12T06:03:01.257Z,4.85
2023-05-12T06:05:27.927Z,4.13
2023-05-12T06:07:55.100Z,3.55
2023-05-12T06:10:21.912Z,3.78
2023-05-12T06:12:48.679Z,4.72
2023-05-12T06:15:15.218Z,4.53
2023-05-12T06:17:41.982Z,4.68
2023-05-12T06:20:08.901Z,4.53
2023-05-12T06:22:35.515Z,4.35
2023-05-12T06:25:02.574Z,4.28
2023-05-12T06:27:29.442Z,4.20
2023-05-12T06:29:55.964Z,3.75
2023-05-12T06:32:22.497Z,3.30
2023-05-12T06:34:49.130Z,4.03
2023-05-12T06:37:15.841Z,4.80
2023-05-12T06:39:42.308Z,4.63
2023-05-12T06:42:08.842Z,4.80
2023-05-12T06:44:42.628Z,4.22
2023-05-12T06:47:09.362Z,4.35
2023-05-12T06:49:37.125Z,4.80
2023-05-12T06:52:05.034Z,4.60
2023-05-12T06:54:31.666Z,5.47
2023-05-12T06:56:58.530Z,5.20
2023-05-12T06:59:25.191Z,4.80
2023-05-12T07:01:51.816Z,4.57
2023-05-12T07:04:18.347Z,4.53
2023-05-12T07:06:44.856Z,4.57
2023-05-12T07:09:11.419Z,4.55
2023-05-12T07:11:38.051Z,3.80
2023-05-12T07:14:04.681Z,3.40
2023-05-12T07:16:32.376Z,4.60
2023-05-12T07:18:58.945Z,4.50
2023-05-12T07:21:25.526Z,4.20
2023-05-12T07:23:52.155Z,3.55
2023-05-12T07:26:18.654Z,4.10
2023-05-12T07:28:45.189Z,3.40
2023-05-12T07:31:11.787Z,4.03
2023-05-12T07:33:38.301Z,4.57
2023-05-12T07:36:04.898Z,4.05
2023-05-12T07:38:32.116Z,4.55
2023-05-12T07:40:59.633Z,3.80
2023-05-12T07:43:26.689Z,4.43
2023-05-12T07:45:54.611Z,5.18
2023-05-12T07:48:21.089Z,4.75
2023-05-12T07:50:47.607Z,4.20
2023-05-12T07:53:14.194Z,4.03
2023-05-12T07:55:41.226Z,4.50
2023-05-12T07:58:07.675Z,4.38
2023-05-12T08:00:34.358Z,4.00
2023-05-12T08:03:00.980Z,4.70
2023-05-12T08:05:27.687Z,4.53
2023-05-12T08:07:54.203Z,5.05
2023-05-12T08:10:20.734Z,4.93
2023-05-12T08:12:50.018Z,5.57
2023-05-12T08:15:16.522Z,8.73
2023-05-12T08:17:43.021Z,5.70
2023-05-12T08:20:10.749Z,5.93
2023-05-12T08:22:37.338Z,6.25
2023-05-12T08:25:04.879Z,6.45
2023-05-12T08:27:31.428Z,5.70
2023-05-12T08:29:58.559Z,5.90
2023-05-12T08:32:25.075Z,6.78
2023-05-12T08:34:51.625Z,6.20
2023-05-12T08:37:18.201Z,6.88
2023-05-12T08:39:45.538Z,6.28
2023-05-12T08:42:36.688Z,6.70
2023-05-12T08:45:04.170Z,6.07
2023-05-12T08:47:33.509Z,6.53
2023-05-12T08:50:04.987Z,6.28
2023-05-12T08:52:36.074Z,6.97
2023-05-12T08:55:04.309Z,7.00
2023-05-12T08:57:31.436Z,6.97
2023-05-12T09:00:01.304Z,6.90
2023-05-12T09:02:41.030Z,7.22
2023-05-12T09:05:11.787Z,7.55
2023-05-12T09:07:43.647Z,5.53
2023-05-12T09:10:33.505Z,4.50
2023-05-12T09:13:20.177Z,4.43
2023-05-12T09:15:47.912Z,5.13
2023-05-12T09:18:14.502Z,5.93
2023-05-12T09:20:41.000Z,4.03
2023-05-12T09:23:22.186Z,3.83
2023-05-12T09:26:00.979Z,3.60
2023-05-12T09:28:39.692Z,3.60
2023-05-12T09:31:20.571Z,4.85
2023-05-12T09:33:47.254Z,3.88
2023-05-12T09:36:21.638Z,3.95
2023-05-12T09:39:00.510Z,4.90
2023-05-12T09:41:26.973Z,4.22
2023-05-12T09:43:53.661Z,5.03
2023-05-12T09:46:20.262Z,4.32
2023-05-12T09:48:47.780Z,5.47
2023-05-12T09:51:18.393Z,4.50
2023-05-12T09:53:46.467Z,4.60
2023-05-12T09:56:13.852Z,4.63
2023-05-12T09:58:44.708Z,3.38
2023-05-12T10:01:22.917Z,3.67
2023-05-12T10:03:56.729Z,3.55
2023-05-12T10:06:28.516Z,3.63
2023-05-12T10:09:16.120Z,3.05
2023-05-12T10:11:43.148Z,2.70
2023-05-12T10:14:11.179Z,2.50
2023-05-12T10:16:38.738Z,2.45
2023-05-12T10:19:06.134Z,2.75
2023-05-12T10:21:35.825Z,3.40
2023-05-12T10:24:03.926Z,3.53
2023-05-12T10:26:32.938Z,2.60
2023-05-12T10:29:00.021Z,2.80
2023-05-12T10:31:27.964Z,2.63
2023-05-12T10:34:02.344Z,2.78
2023-05-12T10:36:29.084Z,2.58
2023-05-12T10:38:56.150Z,2.50
2023-05-12T10:41:31.083Z,3.05
2023-05-12T10:43:57.776Z,2.78
2023-05-12T10:46:26.433Z,2.80
2023-05-12T10:48:57.840Z,2.72
2023-05-12T10:51:33.153Z,2.88
2023-05-12T10:54:02.291Z,2.95
2023-05-12T10:56:31.727Z,2.80
2023-05-12T10:59:37.820Z,2.80
2023-05-12T11:02:12.585Z,2.53
2023-05-12T11:04:43.625Z,3.30
2023-05-12T11:07:14.084Z,3.55
2023-05-12T11:09:53.732Z,3.97
2023-05-12T11:12:27.199Z,3.92
2023-05-12T11:14:53.897Z,4.82
2023-05-12T11:17:20.499Z,5.32
2023-05-12T11:19:48.573Z,5.22
2023-05-12T11:22:19.694Z,5.07
2023-05-12T11:24:46.397Z,5.53
2023-05-12T11:27:19.158Z,5.80
2023-05-12T11:29:56.268Z,6.25
2023-05-12T11:32:22.807Z,5.45
2023-05-12T11:34:49.301Z,5.45
2023-05-12T11:37:15.863Z,5.97
2023-05-12T11:39:42.414Z,5.50
2023-05-12T11:42:13.259Z,6.50
2023-05-12T11:44:48.412Z,5.78
2023-05-12T11:47:16.716Z,5.38
2023-05-12T11:49:51.554Z,6.03
2023-05-12T11:52:19.822Z,5.45
2023-05-12T11:54:53.356Z,5.90
2023-05-12T11:57:31.803Z,5.80
2023-05-12T12:00:03.817Z,5.45
2023-05-12T12:02:33.450Z,5.80
2023-05-12T12:05:00.020Z,5.63
2023-05-12T12:07:34.901Z,6.18
2023-05-12T12:10:18.558Z,5.72
2023-05-12T12:12:46.052Z,5.47
2023-05-12T12:15:13.062Z,5.57
2023-05-12T12:17:40.580Z,5.65
2023-05-12T12:20:08.934Z,5.50
2023-05-12T12:22:35.600Z,4.93
2023-05-12T12:25:03.458Z,5.00
2023-05-12T12:27:30.063Z,5.00
2023-05-12T12:29:56.568Z,4.50
2023-05-12T12:32:23.161Z,4.63
2023-05-12T12:34:49.701Z,5.03
2023-05-12T12:37:17.209Z,5.72
2023-05-12T12:39:43.828Z,5.07
2023-05-12T12:42:10.269Z,5.10
2023-05-12T12:44:36.726Z,4.38
2023-05-12T12:47:03.626Z,4.72
2023-05-12T12:49:30.178Z,5.38
2023-05-12T12:51:56.665Z,5.32
2023-05-12T12:54:26.914Z,4.45
2023-05-12T12:56:53.534Z,4.50
2023-05-12T12:59:20.001Z,5.15
2023-05-12T13:01:46.603Z,5.25
2023-05-12T13:04:13.216Z,4.93
2023-05-12T13:06:39.902Z,5.07
2023-05-12T13:09:06.655Z,5.22
2023-05-12T13:11:33.290Z,5.18
2023-05-12T13:14:02.193Z,4.15
2023-05-12T13:16:30.018Z,4.85
2023-05-12T13:18:56.666Z,4.55
2023-05-12T13:21:23.360Z,3.85
2023-05-12T13:23:49.886Z,4.68
2023-05-12T13:26:16.313Z,4.53
2023-05-12T13:28:43.201Z,4.50
2023-05-12T13:31:09.765Z,4.45
2023-05-12T13:33:36.550Z,4.43
2023-05-12T13:36:03.292Z,3.92
2023-05-12T13:38:30.816Z,4.40
2023-05-12T13:40:57.598Z,4.15
2023-05-12T13:43:24.144Z,4.10
2023-05-12T13:45:50.967Z,3.63
2023-05-12T13:48:17.597Z,3.55
2023-05-12T13:50:44.138Z,4.07
2023-05-12T13:53:12.537Z,4.20
2023-05-12T13:55:40.861Z,3.38
2023-05-12T13:58:09.197Z,3.58
2023-05-12T14:00:35.875Z,3.42
2023-05-12T14:03:02.537Z,3.63
2023-05-12T14:05:29.192Z,3.58
2023-05-12T14:07:55.737Z,4.75
2023-05-12T14:10:22.329Z,3.90
2023-05-12T14:12:48.888Z,3.63
2023-05-12T14:15:28.906Z,4.18
2023-05-12T14:20:26.311Z,5.47
2023-05-12T14:22:52.813Z,5.20
2023-05-12T14:25:19.670Z,6.15
2023-05-12T14:27:46.413Z,5.50
2023-05-12T14:30:13.538Z,5.65
2023-05-12T14:32:40.096Z,6.07
2023-05-12T14:35:08.345Z,6.00
2023-05-12T14:37:35.172Z,5.15
2023-05-12T14:40:02.149Z,6.22
2023-05-12T14:42:30.156Z,6.60
2023-05-12T14:44:57.071Z,6.40
2023-05-12T14:47:24.130Z,7.70
2023-05-12T14:49:50.698Z,6.85
2023-05-12T14:52:17.203Z,6.43
2023-05-12T14:54:44.294Z,6.78
2023-05-12T14:57:10.974Z,6.30
2023-05-12T14:59:38.600Z,6.35
2023-05-12T15:02:05.630Z,6.45
2023-05-12T15:04:32.191Z,6.90
2023-05-12T15:06:58.687Z,6.25
2023-05-12T15:09:25.184Z,6.43
2023-05-12T15:11:51.921Z,6.63
2023-05-12T15:14:18.398Z,6.25
2023-05-12T15:16:44.935Z,6.32
2023-05-12T15:19:11.552Z,6.88
2023-05-12T15:21:38.116Z,5.82
2023-05-12T15:24:04.801Z,15.77
2023-05-12T15:26:33.784Z,6.93
2023-05-12T15:29:01.997Z,6.90
2023-05-12T15:31:29.615Z,6.38
2023-05-12T15:33:57.249Z,6.22
2023-05-12T15:36:24.682Z,6.03
2023-05-12T15:38:51.136Z,6.55
2023-05-12T15:41:17.696Z,5.32
2023-05-12T15:43:44.254Z,16.52
2023-05-12T15:46:11.657Z,7.03
2023-05-12T15:48:39.190Z,6.45
2023-05-12T15:51:05.962Z,5.70
2023-05-12T15:53:32.589Z,5.70
2023-05-12T15:56:03.396Z,5.85
2023-05-12T15:58:33.598Z,5.30
2023-05-12T16:03:30.118Z,5.88
2023-05-12T16:05:56.756Z,5.25
2023-05-12T16:08:24.051Z,5.25
2023-05-12T16:10:51.178Z,6.65
2023-05-12T16:13:17.659Z,5.68
2023-05-12T16:15:44.184Z,5.53
2023-05-12T16:18:11.622Z,5.57
2023-05-12T16:20:38.810Z,6.03
2023-05-12T16:23:05.361Z,6.15
2023-05-12T16:25:31.867Z,6.38
2023-05-12T16:27:58.386Z,6.70
2023-05-12T16:30:25.148Z,5.65
2023-05-12T16:32:51.777Z,6.57
2023-05-12T16:35:18.493Z,6.53
2023-05-12T16:37:45.119Z,5.97
2023-05-12T16:40:12.181Z,6.38
2023-05-12T16:42:38.829Z,6.47
2023-05-12T16:45:06.335Z,6.15
2023-05-12T16:47:32.803Z,5.72
2023-05-12T16:49:59.812Z,5.72
2023-05-12T16:52:26.783Z,5.82
2023-05-12T16:54:55.031Z,6.00
2023-05-12T16:57:21.555Z,6.95
2023-05-12T16:59:48.515Z,6.60
2023-05-12T17:02:15.615Z,6.65
2023-05-12T17:04:42.263Z,5.43
2023-05-12T17:07:09.538Z,6.43
2023-05-12T17:09:36.836Z,14.57
2023-05-12T17:12:04.377Z,10.13
2023-05-12T17:14:30.988Z,5.07
2023-05-12T17:16:57.563Z,4.20
2023-05-12T17:19:24.061Z,1.65
2023-05-12T17:21:50.576Z,1.50
2023-05-12T17:24:17.459Z,1.20
2023-05-12T17:26:44.083Z,1.17
2023-05-12T17:29:10.596Z,1.20
2023-05-12T17:31:37.864Z,1.10
2023-05-12T17:34:04.447Z,1.13
2023-05-12T17:36:31.077Z,1.33
2023-05-12T17:38:57.627Z,1.20
2023-05-12T17:41:24.125Z,1.30
2023-05-12T17:43:50.639Z,1.05
2023-05-12T17:46:17.264Z,1.17
2023-05-12T17:48:43.759Z,1.00
2023-05-12T17:51:10.276Z,1.30
2023-05-12T17:53:36.922Z,1.80
2023-05-12T17:56:03.676Z,1.35
2023-05-12T17:58:30.287Z,1.35
2023-05-12T18:00:57.129Z,1.40
2023-05-12T18:03:24.113Z,1.48
2023-05-12T18:05:52.017Z,1.48
2023-05-12T18:08:18.743Z,1.20
2023-05-12T18:10:45.856Z,1.50
2023-05-12T18:13:14.515Z,1.20
2023-05-12T18:15:41.872Z,1.33
2023-05-12T18:18:08.953Z,1.40
2023-05-12T18:20:35.592Z,8.40
2023-05-12T18:23:02.098Z,1.30
2023-05-12T18:25:28.598Z,1.27
2023-05-12T18:27:55.072Z,1.30
2023-05-12T18:30:21.570Z,1.27
2023-05-12T18:32:48.152Z,1.20
2023-05-12T18:35:14.798Z,1.60
2023-05-12T18:37:44.525Z,1.60
2023-05-12T18:40:12.082Z,1.58
2023-05-12T18:42:39.940Z,2.03
2023-05-12T18:45:07.173Z,2.10
2023-05-12T18:47:34.241Z,1.73
2023-05-12T18:50:00.724Z,1.55
2023-05-12T18:52:27.295Z,1.50
2023-05-12T18:54:53.985Z,1.33
2023-05-12T18:57:20.875Z,1.77
2023-05-12T18:59:47.435Z,1.75
2023-05-12T19:02:13.950Z,1.80
2023-05-12T19:04:40.529Z,1.85
2023-05-12T19:07:09.647Z,1.60
2023-05-12T19:09:36.953Z,1.80
2023-05-12T19:12:05.758Z,2.15
2023-05-12T19:14:32.656Z,2.45
2023-05-12T19:16:59.373Z,3.83
2023-05-12T19:19:25.883Z,4.03
2023-05-12T19:21:52.742Z,15.55
2023-05-12T19:24:19.504Z,4.95
2023-05-12T19:26:46.461Z,3.15
2023-05-12T19:29:13.279Z,3.30
2023-05-12T19:31:40.100Z,2.92
2023-05-12T19:34:07.124Z,2.60
2023-05-12T19:36:34.239Z,3.08
2023-05-12T19:39:01.105Z,2.38
2023-05-12T19:41:29.660Z,2.63
2023-05-12T19:43:56.498Z,2.70
2023-05-12T19:46:23.235Z,2.60
2023-05-12T19:48:51.213Z,2.85
2023-05-12T19:51:17.888Z,2.40
2023-05-12T19:53:44.571Z,2.90
2023-05-12T19:56:11.214Z,3.00
2023-05-12T19:58:38.488Z,2.92
2023-05-12T20:01:05.230Z,2.70
2023-05-12T20:03:31.916Z,2.10
2023-05-12T20:05:58.889Z,2.50
2023-05-12T20:08:25.690Z,2.25
2023-05-12T20:10:52.275Z,7.25
2023-05-12T20:13:18.820Z,22.75
2023-05-12T20:15:45.644Z,2.58
2023-05-12T20:18:15.573Z,2.30
2023-05-12T20:20:42.960Z,2.00
2023-05-12T20:23:09.563Z,2.15
2023-05-12T20:25:36.639Z,1.80
2023-05-12T20:28:03.251Z,2.05
2023-05-12T20:30:29.819Z,2.70
2023-05-12T20:32:56.423Z,3.13
2023-05-12T20:35:23.439Z,1.70
2023-05-12T20:37:50.587Z,1.50
2023-05-12T20:40:17.208Z,1.50
2023-05-12T20:42:48.932Z,1.77
2023-05-12T20:45:16.268Z,1.60
2023-05-12T20:47:42.833Z,1.48
2023-05-12T20:50:09.935Z,1.42
2023-05-12T20:52:37.446Z,1.63
2023-05-12T20:55:04.293Z,1.50
2023-05-12T20:57:30.858Z,1.60
2023-05-12T20:59:57.322Z,1.90
2023-05-12T21:02:25.367Z,1.58
2023-05-12T21:04:52.247Z,2.25
2023-05-12T21:07:19.726Z,2.20
2023-05-12T21:09:47.029Z,2.05
2023-05-12T21:12:13.508Z,2.10
2023-05-12T21:14:41.385Z,1.63
2023-05-12T21:17:08.824Z,1.48
2023-05-12T21:19:36.035Z,1.90
2023-05-12T21:22:04.204Z,1.90
2023-05-12T21:24:31.187Z,2.00
2023-05-12T21:26:58.476Z,1.65
2023-05-12T21:29:25.008Z,1.77
2023-05-12T21:31:52.188Z,1.92
2023-05-12T21:34:18.748Z,1.95
2023-05-12T21:36:45.320Z,1.90
2023-05-12T21:39:12.035Z,1.50
2023-05-12T21:41:39.598Z,1.60
2023-05-12T21:44:06.469Z,1.60
2023-05-12T21:46:33.408Z,2.08
2023-05-12T21:49:00.146Z,2.00
2023-05-12T21:51:27.017Z,2.00
2023-05-12T21:53:56.378Z,2.08
2023-05-12T21:56:23.028Z,2.08
2023-05-12T21:58:50.509Z,2.05
2023-05-12T22:01:18.296Z,2.05
2023-05-12T22:03:45.332Z,1.85
2023-05-12T22:06:12.027Z,2.05
2023-05-12T22:08:38.588Z,2.08
2023-05-12T22:11:05.087Z,2.10
2023-05-12T22:13:31.512Z,1.90
2023-05-12T22:15:58.350Z,1.90
2023-05-12T22:18:24.890Z,2.03
2023-05-12T22:20:51.432Z,2.05
2023-05-12T22:23:17.905Z,2.00
2023-05-12T22:25:44.368Z,2.17
2023-05-12T22:28:11.035Z,1.60
2023-05-12T22:30:37.489Z,1.90
2023-05-12T22:33:04.032Z,2.10
2023-05-12T22:35:30.547Z,1.80
2023-05-12T22:37:57.066Z,2.22
2023-05-12T22:40:23.575Z,2.45
2023-05-12T22:42:50.090Z,2.05
2023-05-12T22:45:16.527Z,2.13
2023-05-12T22:47:43.120Z,2.25
2023-05-12T22:50:10.407Z,2.28
2023-05-12T22:52:36.905Z,2.40
2023-05-12T22:55:03.477Z,2.35
2023-05-12T22:57:29.981Z,2.70
2023-05-12T22:59:56.489Z,2.42
2023-05-12T23:02:22.995Z,2.15
2023-05-12T23:04:49.473Z,2.40
2023-05-12T23:07:15.961Z,2.40
2023-05-12T23:09:42.401Z,2.80
2023-05-12T23:12:09.134Z,2.22
2023-05-12T23:14:35.642Z,1.83
2023-05-12T23:17:02.282Z,2.65
2023-05-12T23:19:28.815Z,2.58
2023-05-12T23:21:55.409Z,2.33
2023-05-12T23:24:21.973Z,2.40
2023-05-12T23:26:49.344Z,2.00
2023-05-12T23:29:15.987Z,2.67
2023-05-12T23:31:42.545Z,2.70
2023-05-12T23:34:09.129Z,2.50
2023-05-12T23:36:35.791Z,2.28
2023-05-12T23:39:02.435Z,2.58
2023-05-12T23:41:31.631Z,2.50
2023-05-12T23:43:58.500Z,2.53
2023-05-12T23:46:25.753Z,2.40
2023-05-12T23:48:52.287Z,2.58
2023-05-12T23:51:18.800Z,2.83
2023-05-12T23:53:45.232Z,2.75
2023-05-12T23:56:11.669Z,2.80
2023-05-12T23:58:38.182Z,2.90
